KBBB/BBB METAR and TAF weather

Enter ICAO airport designator
Station Type Date Time Source
KBBB METAR 2019/08/22 03:35 UTC NOAA

KBBB 220335Z AUTO 00000KT 10SM CLR 12/12 A3009 RMK AO2


Station Type Date Time Source
KBBB Decoded METAR 2019/08/22 03:35 UTC NOAA

Station name not available
Aug 21, 2019 - 11:35 PM EDT / 2019.08.22 0335 UTC
Wind: Calm:0
Visibility: 10 mile(s):0
Sky conditions: clear
Temperature: 53 F (12 C)
Dew Point: 53 F (12 C)
Relative Humidity: 100%
Pressure (altimeter): 30.09 in. Hg (1018 hPa)
ob: KBBB 220335Z AUTO 00000KT 10SM CLR 12/12 A3009 RMK AO2
cycle: 3

Station Type Date Time Source
KBBB TAF UTC NOAA

Error!

Example: see airport list